createdAt,value
2023-03-04T00:01:15.096Z,0
2023-03-04T00:02:32.202Z,0
2023-03-04T00:03:49.307Z,0
2023-03-04T00:05:06.412Z,0
2023-03-04T00:06:23.517Z,0
2023-03-04T00:07:40.622Z,0
2023-03-04T00:08:57.728Z,0
2023-03-04T00:10:14.833Z,0
2023-03-04T00:11:31.938Z,0
2023-03-04T00:12:49.043Z,0
2023-03-04T00:14:06.148Z,0
2023-03-04T00:15:23.254Z,0
2023-03-04T00:16:40.359Z,0
2023-03-04T00:17:56.480Z,0
2023-03-04T00:19:13.585Z,0
2023-03-04T00:20:30.690Z,0
2023-03-04T00:21:47.795Z,0
2023-03-04T00:23:04.900Z,0
2023-03-04T00:24:22.006Z,0
2023-03-04T00:25:39.111Z,0
2023-03-04T00:26:56.217Z,0
2023-03-04T00:28:13.323Z,0
2023-03-04T00:29:30.428Z,0
2023-03-04T00:30:47.533Z,0
2023-03-04T00:32:04.638Z,0
2023-03-04T00:33:21.743Z,0
2023-03-04T00:34:37.864Z,0
2023-03-04T00:35:54.970Z,0
2023-03-04T00:37:12.075Z,0
2023-03-04T00:38:29.180Z,0
2023-03-04T00:39:46.286Z,0
2023-03-04T00:41:03.391Z,0
2023-03-04T00:42:20.496Z,0
2023-03-04T00:43:37.601Z,0
2023-03-04T00:44:54.708Z,0
2023-03-04T00:46:11.813Z,0
2023-03-04T00:47:28.918Z,0
2023-03-04T00:48:46.024Z,0
2023-03-04T00:50:03.129Z,0
2023-03-04T00:51:19.250Z,0
2023-03-04T00:53:53.461Z,0
2023-03-04T00:55:10.566Z,0
2023-03-04T00:56:27.672Z,0
2023-03-04T00:57:44.777Z,0
2023-03-04T00:59:01.882Z,0
2023-03-04T01:00:18.988Z,0
2023-03-04T01:01:36.093Z,0
2023-03-04T01:02:53.198Z,0
2023-03-04T01:04:10.303Z,0
2023-03-04T01:05:27.409Z,0
2023-03-04T01:06:44.514Z,0
2023-03-04T01:08:00.635Z,0
2023-03-04T01:09:17.740Z,0
2023-03-04T01:10:34.846Z,0
2023-03-04T01:11:51.951Z,0
2023-03-04T01:13:09.057Z,0
2023-03-04T01:14:26.162Z,0
2023-03-04T01:15:43.267Z,0
2023-03-04T01:17:00.373Z,0
2023-03-04T01:18:17.478Z,0
2023-03-04T01:19:34.583Z,0
2023-03-04T01:20:51.688Z,0
2023-03-04T01:22:08.794Z,0
2023-03-04T01:23:25.899Z,0
2023-03-04T01:24:42.021Z,0
2023-03-04T01:25:59.126Z,0
2023-03-04T01:27:16.231Z,0
2023-03-04T01:28:33.336Z,0
2023-03-04T01:29:50.441Z,0
2023-03-04T01:31:07.547Z,0
2023-03-04T01:33:41.757Z,0
2023-03-04T01:34:58.863Z,0
2023-03-04T01:36:15.968Z,0
2023-03-04T01:37:33.073Z,0
2023-03-04T01:38:50.178Z,0
2023-03-04T01:40:07.283Z,0
2023-03-04T01:41:23.405Z,0
2023-03-04T01:42:40.510Z,0
2023-03-04T01:43:57.615Z,0
2023-03-04T01:45:14.720Z,0
2023-03-04T01:46:31.826Z,0
2023-03-04T01:47:48.931Z,0
2023-03-04T01:49:06.036Z,0
2023-03-04T01:50:23.141Z,0
2023-03-04T01:51:40.246Z,0
2023-03-04T01:52:57.351Z,0
2023-03-04T01:54:14.456Z,0
2023-03-04T01:55:31.561Z,0
2023-03-04T01:56:48.667Z,0
2023-03-04T01:58:04.788Z,0
2023-03-04T01:59:21.893Z,0
2023-03-04T02:01:56.103Z,0
2023-03-04T02:03:13.209Z,0
2023-03-04T02:04:30.315Z,0
2023-03-04T02:05:47.420Z,0
2023-03-04T02:07:04.526Z,0
2023-03-04T02:08:21.631Z,0
2023-03-04T02:09:38.736Z,0
2023-03-04T02:10:55.841Z,0
2023-03-04T02:12:12.946Z,0
2023-03-04T02:13:30.052Z,0
2023-03-04T02:14:46.173Z,0
2023-03-04T02:16:03.278Z,0
2023-03-04T02:17:20.383Z,0
2023-03-04T02:18:37.489Z,0
2023-03-04T02:19:54.594Z,0
2023-03-04T02:21:11.700Z,0
2023-03-04T02:22:28.805Z,0
2023-03-04T02:23:45.910Z,0
2023-03-04T02:25:03.015Z,0
2023-03-04T02:26:20.121Z,0
2023-03-04T02:27:37.226Z,0
2023-03-04T02:28:54.331Z,0
2023-03-04T02:30:11.436Z,0
2023-03-04T02:31:27.558Z,0
2023-03-04T02:32:44.663Z,0
2023-03-04T02:34:01.768Z,0
2023-03-04T02:35:18.874Z,0
2023-03-04T02:36:35.979Z,0
2023-03-04T02:37:53.084Z,0
2023-03-04T02:40:27.295Z,0
2023-03-04T02:41:44.400Z,0
2023-03-04T02:43:01.505Z,0
2023-03-04T02:44:18.611Z,0
2023-03-04T02:45:35.716Z,0
2023-03-04T02:46:52.821Z,0
2023-03-04T02:48:08.942Z,0
2023-03-04T02:49:26.048Z,0
2023-03-04T02:50:43.153Z,0
2023-03-04T02:52:00.259Z,0
2023-03-04T02:53:17.364Z,0
2023-03-04T02:54:34.469Z,0
2023-03-04T02:55:51.574Z,0
2023-03-04T02:57:08.679Z,0
2023-03-04T02:58:25.784Z,0
2023-03-04T02:59:42.890Z,0
2023-03-04T03:00:59.995Z,0
2023-03-04T03:02:17.100Z,0
2023-03-04T03:03:34.206Z,0
2023-03-04T03:04:50.327Z,0
2023-03-04T03:06:07.432Z,0
2023-03-04T03:07:24.538Z,0
2023-03-04T03:08:41.643Z,0
2023-03-04T03:09:58.749Z,0
2023-03-04T03:11:15.854Z,0
2023-03-04T03:12:32.959Z,0
2023-03-04T03:13:50.065Z,0
2023-03-04T03:15:07.170Z,0
2023-03-04T03:16:24.275Z,0
2023-03-04T03:17:41.381Z,0
2023-03-04T03:18:58.486Z,0
2023-03-04T03:20:15.591Z,0
2023-03-04T03:21:31.712Z,0
2023-03-04T03:22:48.818Z,0
2023-03-04T03:24:05.923Z,0
2023-03-04T03:26:40.134Z,0
2023-03-04T03:27:56.255Z,0
2023-03-04T03:29:13.361Z,0
2023-03-04T03:30:30.466Z,0
2023-03-04T03:31:47.571Z,0
2023-03-04T03:33:04.676Z,0
2023-03-04T03:34:21.781Z,0
2023-03-04T03:35:38.887Z,0
2023-03-04T03:36:55.992Z,0
2023-03-04T03:38:13.097Z,0
2023-03-04T03:39:30.203Z,0
2023-03-04T03:40:47.308Z,0
2023-03-04T03:42:04.413Z,0
2023-03-04T03:43:21.518Z,0
2023-03-04T03:44:37.637Z,0
2023-03-04T03:45:54.742Z,0
2023-03-04T03:47:11.848Z,0
2023-03-04T03:48:28.953Z,0
2023-03-04T03:49:46.058Z,0
2023-03-04T03:51:03.164Z,0
2023-03-04T03:52:20.269Z,0
2023-03-04T03:53:37.374Z,0
2023-03-04T03:54:54.479Z,0
2023-03-04T03:56:11.584Z,0
2023-03-04T03:57:28.690Z,0
2023-03-04T03:58:45.795Z,0
2023-03-04T04:00:02.901Z,0
2023-03-04T04:01:19.023Z,0
2023-03-04T04:02:36.128Z,0
2023-03-04T04:03:53.233Z,0
2023-03-04T04:05:10.338Z,0
2023-03-04T04:06:27.444Z,0
2023-03-04T04:07:44.549Z,0
2023-03-04T04:09:01.654Z,0
2023-03-04T04:10:18.760Z,0
2023-03-04T04:11:35.865Z,0
2023-03-04T04:12:52.970Z,0
2023-03-04T04:14:10.073Z,0
2023-03-04T04:15:27.178Z,0
2023-03-04T04:16:44.283Z,0
2023-03-04T04:18:00.405Z,0
2023-03-04T04:19:17.510Z,0
2023-03-04T04:20:34.615Z,0
2023-03-04T04:21:51.721Z,0
2023-03-04T04:23:08.826Z,0
2023-03-04T04:24:25.931Z,0
2023-03-04T04:25:43.037Z,0
2023-03-04T04:27:00.142Z,0
2023-03-04T04:28:17.247Z,0
2023-03-04T04:29:34.352Z,0
2023-03-04T04:30:51.457Z,0
2023-03-04T04:32:08.563Z,0
2023-03-04T04:33:25.668Z,0
2023-03-04T04:35:59.878Z,0
2023-03-04T04:37:16.000Z,0
2023-03-04T04:38:33.105Z,0
2023-03-04T04:39:50.210Z,0
2023-03-04T04:41:07.316Z,0
2023-03-04T04:42:24.421Z,0
2023-03-04T04:43:41.526Z,0
2023-03-04T04:44:58.632Z,0
2023-03-04T04:46:15.737Z,0
2023-03-04T04:47:32.842Z,0
2023-03-04T04:48:49.947Z,0
2023-03-04T04:50:07.052Z,0
2023-03-04T04:51:24.158Z,0
2023-03-04T04:52:41.263Z,0
2023-03-04T04:53:57.384Z,0
2023-03-04T04:55:14.490Z,0
2023-03-04T04:56:31.595Z,0
2023-03-04T04:57:48.700Z,0
2023-03-04T04:59:05.805Z,0
2023-03-04T05:00:22.911Z,0
2023-03-04T05:01:40.016Z,0
2023-03-04T05:02:57.121Z,0
2023-03-04T05:04:14.226Z,0
2023-03-04T05:06:48.437Z,0
2023-03-04T05:08:05.542Z,0
2023-03-04T05:09:22.647Z,0
2023-03-04T05:10:38.769Z,0
2023-03-04T05:11:55.874Z,0
2023-03-04T05:13:12.979Z,0
2023-03-04T05:14:30.084Z,0
2023-03-04T05:15:47.190Z,0
2023-03-04T05:17:04.295Z,0
2023-03-04T05:18:21.400Z,0
2023-03-04T05:19:38.506Z,0
2023-03-04T05:22:12.716Z,0
2023-03-04T05:23:29.821Z,0
2023-03-04T05:24:46.926Z,0
2023-03-04T05:26:04.031Z,0
2023-03-04T05:27:20.152Z,0
2023-03-04T05:28:37.258Z,0
2023-03-04T05:29:54.363Z,0
2023-03-04T05:31:11.468Z,0
2023-03-04T05:32:28.573Z,0
2023-03-04T05:35:01.805Z,0
2023-03-04T05:36:17.932Z,0
2023-03-04T05:37:34.053Z,0
2023-03-04T05:38:51.158Z,0
2023-03-04T05:40:08.263Z,0
2023-03-04T05:41:25.368Z,0
2023-03-04T05:42:42.474Z,0
2023-03-04T05:43:58.600Z,0
2023-03-04T05:45:15.705Z,0
2023-03-04T05:46:31.827Z,0
2023-03-04T05:47:48.933Z,0
2023-03-04T05:49:06.038Z,0
2023-03-04T05:50:23.143Z,0
2023-03-04T05:51:40.248Z,0
2023-03-04T05:52:57.353Z,0
2023-03-04T05:54:14.458Z,0
2023-03-04T05:55:31.564Z,0
2023-03-04T05:56:48.669Z,0
2023-03-04T05:58:05.774Z,0
2023-03-04T05:59:22.879Z,0
2023-03-04T06:00:39.985Z,0
2023-03-04T06:01:57.090Z,0
2023-03-04T06:03:13.211Z,0
2023-03-04T06:04:30.316Z,0
2023-03-04T06:05:47.421Z,0
2023-03-04T06:07:04.527Z,0
2023-03-04T06:08:21.633Z,0
2023-03-04T06:09:38.738Z,0
2023-03-04T06:10:55.844Z,0
2023-03-04T06:12:12.949Z,0
2023-03-04T06:13:30.054Z,5
2023-03-04T06:14:47.159Z,5
2023-03-04T06:16:04.264Z,5
2023-03-04T06:17:21.371Z,5
2023-03-04T06:18:38.476Z,5
2023-03-04T06:19:54.597Z,5
2023-03-04T06:21:11.703Z,5
2023-03-04T06:22:28.808Z,5
2023-03-04T06:23:45.913Z,5
2023-03-04T06:25:03.018Z,5
2023-03-04T06:26:20.123Z,5
2023-03-04T06:27:37.230Z,5
2023-03-04T06:28:54.335Z,11
2023-03-04T06:30:11.440Z,11
2023-03-04T06:31:28.545Z,11
2023-03-04T06:32:45.651Z,11
2023-03-04T06:34:02.757Z,11
2023-03-04T06:35:19.862Z,11
2023-03-04T06:36:35.983Z,11
2023-03-04T06:37:53.088Z,11
2023-03-04T06:39:10.194Z,11
2023-03-04T06:40:27.299Z,16
2023-03-04T06:41:44.404Z,16
2023-03-04T06:43:01.509Z,16
2023-03-04T06:44:18.615Z,16
2023-03-04T06:45:35.720Z,16
2023-03-04T06:46:52.825Z,16
2023-03-04T06:48:09.930Z,22
2023-03-04T06:49:27.036Z,22
2023-03-04T06:50:44.141Z,22
2023-03-04T06:53:18.351Z,22
2023-03-04T06:54:34.473Z,22
2023-03-04T06:55:51.578Z,22
2023-03-04T06:57:08.683Z,22
2023-03-04T06:58:25.788Z,22
2023-03-04T06:59:42.893Z,28
2023-03-04T07:00:59.998Z,28
2023-03-04T07:02:17.104Z,28
2023-03-04T07:03:34.209Z,28
2023-03-04T07:04:51.315Z,28
2023-03-04T07:06:08.420Z,33
2023-03-04T07:07:25.525Z,33
2023-03-04T07:08:42.630Z,33
2023-03-04T07:09:59.735Z,33
2023-03-04T07:11:15.857Z,33
2023-03-04T07:12:32.962Z,33
2023-03-04T07:13:50.067Z,33
2023-03-04T07:15:07.172Z,39
2023-03-04T07:16:24.275Z,39
2023-03-04T07:18:58.485Z,39
2023-03-04T07:20:15.590Z,39
2023-03-04T07:21:32.695Z,39
2023-03-04T07:22:49.800Z,39
2023-03-04T07:24:06.906Z,45
2023-03-04T07:25:24.011Z,45
2023-03-04T07:26:41.116Z,45
2023-03-04T07:27:57.237Z,50
2023-03-04T07:29:14.342Z,50
2023-03-04T07:30:31.447Z,56
2023-03-04T07:33:05.657Z,56
2023-03-04T07:34:22.762Z,56
2023-03-04T07:35:39.867Z,56
2023-03-04T07:36:56.972Z,56
2023-03-04T07:38:14.077Z,56
2023-03-04T07:39:31.182Z,61
2023-03-04T07:40:48.286Z,67
2023-03-04T07:42:05.391Z,67
2023-03-04T07:43:22.496Z,73
2023-03-04T07:44:38.617Z,78
2023-03-04T07:45:54.739Z,84
2023-03-04T07:47:11.844Z,90
2023-03-04T07:48:28.949Z,90
2023-03-04T07:49:46.054Z,90
2023-03-04T07:51:03.159Z,90
2023-03-04T07:52:20.264Z,84
2023-03-04T07:53:37.369Z,84
2023-03-04T07:54:54.474Z,78
2023-03-04T07:56:11.579Z,90
2023-03-04T07:57:28.684Z,90
2023-03-04T07:58:45.790Z,101
2023-03-04T08:00:02.894Z,106
2023-03-04T08:01:19.999Z,112
2023-03-04T08:02:36.120Z,112
2023-03-04T08:03:53.225Z,112
2023-03-04T08:05:10.330Z,123
2023-03-04T08:06:27.435Z,123
2023-03-04T08:07:44.540Z,118
2023-03-04T08:09:01.645Z,123
2023-03-04T08:10:18.750Z,123
2023-03-04T08:11:35.855Z,129
2023-03-04T08:12:52.960Z,129
2023-03-04T08:14:10.065Z,123
2023-03-04T08:15:27.170Z,112
2023-03-04T08:16:44.276Z,106
2023-03-04T08:18:01.381Z,112
2023-03-04T08:19:18.486Z,106
2023-03-04T08:20:34.607Z,112
2023-03-04T08:21:51.712Z,123
2023-03-04T08:23:08.817Z,129
2023-03-04T08:24:25.922Z,129
2023-03-04T08:25:43.026Z,129
2023-03-04T08:27:00.131Z,129
2023-03-04T08:28:17.236Z,129
2023-03-04T08:29:34.341Z,129
2023-03-04T08:30:51.446Z,129
2023-03-04T08:32:08.551Z,129
2023-03-04T08:33:25.656Z,123
2023-03-04T08:34:42.760Z,123
2023-03-04T08:35:59.865Z,129
2023-03-04T08:37:15.986Z,129
2023-03-04T08:38:33.091Z,129
2023-03-04T08:39:50.196Z,129
2023-03-04T08:41:07.301Z,129
2023-03-04T08:42:24.405Z,129
2023-03-04T08:43:41.511Z,135
2023-03-04T08:44:58.615Z,140
2023-03-04T08:46:15.720Z,146
2023-03-04T08:47:32.825Z,151
2023-03-04T08:50:07.035Z,174
2023-03-04T08:51:24.140Z,174
2023-03-04T08:52:41.245Z,180
2023-03-04T08:53:57.366Z,191
2023-03-04T08:55:14.471Z,225
2023-03-04T08:56:31.576Z,253
2023-03-04T08:57:48.681Z,258
2023-03-04T08:59:05.785Z,253
2023-03-04T09:00:22.890Z,253
2023-03-04T09:01:39.995Z,253
2023-03-04T09:02:57.101Z,253
2023-03-04T09:04:14.206Z,253
2023-03-04T09:05:31.311Z,281
2023-03-04T09:06:48.416Z,286
2023-03-04T09:08:05.520Z,247
2023-03-04T09:09:22.625Z,230
2023-03-04T09:10:38.746Z,247
2023-03-04T09:11:55.851Z,270
2023-03-04T09:13:12.956Z,331
2023-03-04T09:14:30.061Z,382
2023-03-04T09:15:47.166Z,405
2023-03-04T09:17:04.271Z,421
2023-03-04T09:18:21.376Z,472
2023-03-04T09:19:38.481Z,523
2023-03-04T09:20:55.585Z,579
2023-03-04T09:22:12.690Z,601
2023-03-04T09:23:29.796Z,601
2023-03-04T09:24:46.901Z,579
2023-03-04T09:26:04.006Z,573
2023-03-04T09:27:20.127Z,585
2023-03-04T09:28:37.232Z,624
2023-03-04T09:29:54.336Z,669
2023-03-04T09:31:11.441Z,646
2023-03-04T09:32:28.546Z,613
2023-03-04T09:33:45.650Z,601
2023-03-04T09:36:19.860Z,652
2023-03-04T09:37:36.965Z,731
2023-03-04T09:38:54.070Z,753
2023-03-04T09:40:11.175Z,1023
2023-03-04T09:42:45.384Z,776
2023-03-04T09:44:01.504Z,646
2023-03-04T09:45:18.609Z,691
2023-03-04T09:46:35.713Z,652
2023-03-04T09:47:52.818Z,579
2023-03-04T09:49:09.922Z,551
2023-03-04T09:50:27.027Z,545
2023-03-04T09:51:44.131Z,523
2023-03-04T09:53:01.236Z,534
2023-03-04T09:54:18.340Z,517
2023-03-04T09:55:35.445Z,528
2023-03-04T09:56:52.549Z,534
2023-03-04T09:59:26.758Z,540
2023-03-04T10:00:42.884Z,551
2023-03-04T10:01:59.989Z,601
2023-03-04T10:03:16.109Z,601
2023-03-04T10:05:50.318Z,590
2023-03-04T10:07:07.423Z,562
2023-03-04T10:08:24.527Z,528
2023-03-04T10:09:41.632Z,523
2023-03-04T10:10:58.737Z,506
2023-03-04T10:12:15.841Z,517
2023-03-04T10:13:32.946Z,506
2023-03-04T10:14:50.051Z,438
2023-03-04T10:16:07.156Z,388
2023-03-04T10:17:24.261Z,393
2023-03-04T10:18:41.365Z,444
2023-03-04T10:19:57.486Z,371
2023-03-04T10:21:14.590Z,315
2023-03-04T10:22:31.695Z,354
2023-03-04T10:23:48.799Z,360
2023-03-04T10:25:05.904Z,365
2023-03-04T10:26:23.008Z,354
2023-03-04T10:27:40.113Z,365
2023-03-04T10:28:56.238Z,376
2023-03-04T10:30:12.359Z,376
2023-03-04T10:31:29.463Z,416
2023-03-04T10:32:46.568Z,405
2023-03-04T10:34:03.672Z,337
2023-03-04T10:35:20.777Z,393
2023-03-04T10:39:12.090Z,455
2023-03-04T10:40:29.195Z,433
2023-03-04T10:41:46.299Z,450
2023-03-04T10:43:03.404Z,461
2023-03-04T10:44:20.508Z,483
2023-03-04T10:45:37.613Z,399
2023-03-04T10:46:53.739Z,337
2023-03-04T10:48:09.859Z,326
2023-03-04T10:49:26.964Z,354
2023-03-04T10:50:44.069Z,337
2023-03-04T10:52:01.173Z,298
2023-03-04T10:53:18.278Z,247
2023-03-04T10:54:35.382Z,213
2023-03-04T10:55:52.487Z,219
2023-03-04T10:57:09.591Z,247
2023-03-04T10:59:43.800Z,315
2023-03-04T11:01:00.905Z,343
2023-03-04T11:02:18.010Z,421
2023-03-04T11:03:35.115Z,427
2023-03-04T11:06:08.340Z,337
2023-03-04T11:07:24.466Z,337
2023-03-04T11:08:40.587Z,405
2023-03-04T11:09:57.692Z,466
2023-03-04T11:11:14.797Z,416
2023-03-04T11:12:31.902Z,365
2023-03-04T11:13:49.006Z,348
2023-03-04T11:15:06.111Z,315
2023-03-04T11:16:23.216Z,298
2023-03-04T11:17:40.321Z,315
2023-03-04T11:18:57.426Z,354
2023-03-04T11:20:14.530Z,371
2023-03-04T11:21:30.656Z,399
2023-03-04T11:22:46.777Z,365
2023-03-04T11:24:03.882Z,343
2023-03-04T11:25:20.986Z,326
2023-03-04T11:26:38.091Z,360
2023-03-04T11:27:55.196Z,343
2023-03-04T11:29:12.301Z,309
2023-03-04T11:30:29.406Z,326
2023-03-04T11:31:46.511Z,292
2023-03-04T11:33:03.616Z,286
2023-03-04T11:34:20.720Z,286
2023-03-04T11:35:36.846Z,275
2023-03-04T11:36:52.967Z,241
2023-03-04T11:38:10.072Z,219
2023-03-04T11:39:27.177Z,225
2023-03-04T11:42:01.387Z,253
2023-03-04T11:43:18.492Z,236
2023-03-04T11:44:35.596Z,202
2023-03-04T11:45:52.701Z,208
2023-03-04T11:47:09.806Z,225
2023-03-04T11:48:26.911Z,213
2023-03-04T11:49:44.016Z,225
2023-03-04T11:51:01.121Z,275
2023-03-04T11:52:18.226Z,292
2023-03-04T11:53:34.347Z,292
2023-03-04T11:54:51.452Z,343
2023-03-04T11:56:08.556Z,365
2023-03-04T11:57:25.661Z,343
2023-03-04T11:58:42.766Z,320
2023-03-04T11:59:59.871Z,354
2023-03-04T12:01:16.975Z,298
2023-03-04T12:02:34.081Z,258
2023-03-04T12:03:51.185Z,253
2023-03-04T12:05:07.321Z,258
2023-03-04T12:06:23.442Z,253
2023-03-04T12:07:40.547Z,230
2023-03-04T12:10:14.756Z,253
2023-03-04T12:11:31.861Z,253
2023-03-04T12:12:47.987Z,230
2023-03-04T12:14:04.108Z,225
2023-03-04T12:15:21.213Z,202
2023-03-04T12:16:38.317Z,213
2023-03-04T12:17:55.422Z,213
2023-03-04T12:19:12.527Z,219
2023-03-04T12:20:29.632Z,219
2023-03-04T12:21:46.737Z,219
2023-03-04T12:23:03.842Z,202
2023-03-04T12:24:20.947Z,219
2023-03-04T12:25:38.052Z,219
2023-03-04T12:26:55.157Z,196
2023-03-04T12:28:12.263Z,180
2023-03-04T12:29:29.368Z,157
2023-03-04T12:30:46.472Z,163
2023-03-04T12:32:02.593Z,180
2023-03-04T12:33:19.698Z,174
2023-03-04T12:34:36.803Z,157
2023-03-04T12:35:53.908Z,151
2023-03-04T12:37:11.013Z,180
2023-03-04T12:38:28.118Z,180
2023-03-04T12:39:45.223Z,185
2023-03-04T12:41:02.328Z,208
2023-03-04T12:42:19.433Z,236
2023-03-04T12:43:36.538Z,241
2023-03-04T12:44:53.642Z,230
2023-03-04T12:47:27.852Z,225
2023-03-04T12:48:43.973Z,253
2023-03-04T12:50:01.078Z,275
2023-03-04T12:51:18.183Z,258
2023-03-04T12:52:35.288Z,247
2023-03-04T12:53:52.393Z,247
2023-03-04T12:55:09.498Z,292
2023-03-04T12:56:26.603Z,331
2023-03-04T12:57:43.708Z,320
2023-03-04T12:59:00.812Z,309
2023-03-04T13:00:17.917Z,315
2023-03-04T13:01:35.022Z,343
2023-03-04T13:02:52.127Z,376
2023-03-04T13:04:09.232Z,376
2023-03-04T13:05:25.353Z,354
2023-03-04T13:06:42.458Z,354
2023-03-04T13:09:16.668Z,292
2023-03-04T13:10:33.772Z,326
2023-03-04T13:11:50.877Z,326
2023-03-04T13:13:07.982Z,298
2023-03-04T13:14:25.087Z,315
2023-03-04T13:15:42.192Z,331
2023-03-04T13:16:59.297Z,360
2023-03-04T13:18:16.402Z,343
2023-03-04T13:19:33.507Z,275
2023-03-04T13:20:50.611Z,241
2023-03-04T13:22:06.732Z,258
2023-03-04T13:23:23.837Z,337
2023-03-04T13:24:40.943Z,331
2023-03-04T13:25:58.048Z,264
2023-03-04T13:27:15.152Z,208
2023-03-04T13:28:32.257Z,185
2023-03-04T13:29:49.362Z,151
2023-03-04T13:31:06.467Z,129
2023-03-04T13:32:23.571Z,135
2023-03-04T13:33:40.676Z,135
2023-03-04T13:34:57.781Z,135
2023-03-04T13:36:14.886Z,135
2023-03-04T13:37:31.991Z,140
2023-03-04T13:38:48.112Z,140
2023-03-04T13:40:05.217Z,174
2023-03-04T13:41:22.322Z,281
2023-03-04T13:42:39.426Z,326
2023-03-04T13:43:56.531Z,348
2023-03-04T13:45:13.636Z,343
2023-03-04T13:46:30.741Z,320
2023-03-04T13:47:47.846Z,309
2023-03-04T13:49:04.951Z,275
2023-03-04T13:50:22.056Z,241
2023-03-04T13:51:39.161Z,241
2023-03-04T13:52:56.266Z,247
2023-03-04T13:54:13.371Z,230
2023-03-04T13:56:46.596Z,258
2023-03-04T13:58:03.702Z,258
2023-03-04T13:59:20.807Z,258
2023-03-04T14:00:37.911Z,270
2023-03-04T14:01:55.016Z,258
2023-03-04T14:03:12.121Z,253
2023-03-04T14:04:29.226Z,213
2023-03-04T14:05:46.331Z,168
2023-03-04T14:07:03.436Z,174
2023-03-04T14:08:20.541Z,157
2023-03-04T14:09:37.646Z,146
2023-03-04T14:10:54.751Z,140
2023-03-04T14:12:10.872Z,129
2023-03-04T14:13:27.977Z,112
2023-03-04T14:14:45.081Z,106
2023-03-04T14:16:02.186Z,106
2023-03-04T14:17:19.291Z,101
2023-03-04T14:18:36.396Z,101
2023-03-04T14:19:53.501Z,106
2023-03-04T14:21:10.606Z,106
2023-03-04T14:22:27.711Z,118
2023-03-04T14:23:44.816Z,118
2023-03-04T14:25:01.921Z,106
2023-03-04T14:26:19.025Z,106
2023-03-04T14:27:36.130Z,112
2023-03-04T14:28:52.251Z,151
2023-03-04T14:30:09.356Z,129
2023-03-04T14:31:26.461Z,123
2023-03-04T14:32:43.566Z,123
2023-03-04T14:34:00.671Z,123
2023-03-04T14:35:17.776Z,112
2023-03-04T14:36:34.881Z,106
2023-03-04T14:37:51.984Z,101
2023-03-04T14:39:09.088Z,90
2023-03-04T14:40:26.193Z,84
2023-03-04T14:41:43.298Z,101
2023-03-04T14:43:00.404Z,129
2023-03-04T14:44:17.509Z,129
2023-03-04T14:45:33.630Z,123
2023-03-04T14:46:50.734Z,140
2023-03-04T14:48:07.839Z,208
2023-03-04T14:49:24.944Z,213
2023-03-04T14:50:42.049Z,174
2023-03-04T14:51:59.153Z,146
2023-03-04T14:53:16.259Z,129
2023-03-04T14:54:33.363Z,140
2023-03-04T14:55:50.468Z,123
2023-03-04T14:57:07.573Z,95
2023-03-04T14:58:24.677Z,95
2023-03-04T14:59:41.782Z,78
2023-03-04T15:00:58.887Z,73
2023-03-04T15:02:15.008Z,78
2023-03-04T15:03:32.112Z,67
2023-03-04T15:04:49.218Z,61
2023-03-04T15:06:06.322Z,61
2023-03-04T15:07:23.427Z,73
2023-03-04T15:08:40.532Z,73
2023-03-04T15:09:57.637Z,78
2023-03-04T15:11:14.741Z,95
2023-03-04T15:12:31.846Z,78
2023-03-04T15:13:48.951Z,95
2023-03-04T15:15:06.056Z,106
2023-03-04T15:16:23.161Z,95
2023-03-04T15:17:40.265Z,84
2023-03-04T15:18:56.386Z,73
2023-03-04T15:20:13.491Z,67
2023-03-04T15:21:30.596Z,61
2023-03-04T15:22:47.700Z,56
2023-03-04T15:24:04.805Z,56
2023-03-04T15:25:21.910Z,90
2023-03-04T15:26:39.015Z,123
2023-03-04T15:27:56.120Z,140
2023-03-04T15:29:13.225Z,168
2023-03-04T15:30:30.329Z,174
2023-03-04T15:31:47.435Z,168
2023-03-04T15:33:04.540Z,157
2023-03-04T15:35:38.749Z,146
2023-03-04T15:36:54.868Z,140
2023-03-04T15:38:11.973Z,129
2023-03-04T15:39:29.078Z,118
2023-03-04T15:40:46.183Z,112
2023-03-04T15:42:03.288Z,101
2023-03-04T15:44:37.497Z,78
2023-03-04T15:45:54.602Z,73
2023-03-04T15:47:11.707Z,61
2023-03-04T15:48:28.812Z,45
2023-03-04T15:49:45.917Z,39
2023-03-04T15:51:03.021Z,33
2023-03-04T15:52:20.126Z,28
2023-03-04T15:53:36.247Z,28
2023-03-04T15:56:10.457Z,22
2023-03-04T15:57:26.583Z,28
2023-03-04T15:58:42.704Z,33
2023-03-04T15:59:59.809Z,39
2023-03-04T16:01:16.913Z,39
2023-03-04T16:02:34.018Z,39
2023-03-04T16:03:51.123Z,45
2023-03-04T16:05:08.228Z,45
2023-03-04T16:06:25.333Z,50
2023-03-04T16:07:42.438Z,50
2023-03-04T16:08:59.542Z,50
2023-03-04T16:10:16.647Z,56
2023-03-04T16:11:32.773Z,56
2023-03-04T16:12:48.894Z,56
2023-03-04T16:14:05.999Z,61
2023-03-04T16:15:23.104Z,67
2023-03-04T16:16:40.209Z,67
2023-03-04T16:17:57.315Z,61
2023-03-04T16:19:14.420Z,50
2023-03-04T16:20:31.524Z,45
2023-03-04T16:21:48.629Z,39
2023-03-04T16:23:04.750Z,39
2023-03-04T16:24:21.855Z,39
2023-03-04T16:25:38.960Z,39
2023-03-04T16:26:56.065Z,39
2023-03-04T16:28:13.170Z,33
2023-03-04T16:29:30.275Z,28
2023-03-04T16:30:47.379Z,28
2023-03-04T16:32:04.484Z,22
2023-03-04T16:33:21.589Z,16
2023-03-04T16:34:38.694Z,16
2023-03-04T16:35:55.799Z,11
2023-03-04T16:38:30.009Z,11
2023-03-04T16:39:46.130Z,5
2023-03-04T16:41:03.235Z,5
2023-03-04T16:42:20.339Z,5
2023-03-04T16:43:37.444Z,5
2023-03-04T16:44:54.549Z,5
2023-03-04T16:46:11.654Z,5
2023-03-04T16:47:28.759Z,5
2023-03-04T16:48:45.864Z,0
2023-03-04T16:50:02.969Z,0
2023-03-04T16:51:20.074Z,0
2023-03-04T16:52:37.179Z,0
2023-03-04T16:53:54.283Z,0
2023-03-04T16:55:11.388Z,0
2023-03-04T16:56:27.509Z,0
2023-03-04T16:57:44.614Z,0
2023-03-04T16:59:01.719Z,0
2023-03-04T17:00:18.824Z,0
2023-03-04T17:01:35.929Z,0
2023-03-04T17:02:53.034Z,0
2023-03-04T17:04:10.137Z,0
2023-03-04T17:05:27.241Z,0
2023-03-04T17:06:44.346Z,0
2023-03-04T17:08:01.451Z,0
2023-03-04T17:09:18.556Z,0
2023-03-04T17:10:35.661Z,0
2023-03-04T17:11:52.766Z,0
2023-03-04T17:13:08.887Z,0
2023-03-04T17:14:25.992Z,0
2023-03-04T17:15:43.097Z,0
2023-03-04T17:17:00.201Z,0
2023-03-04T17:18:17.306Z,0
2023-03-04T17:19:34.411Z,0
2023-03-04T17:20:51.516Z,0
2023-03-04T17:22:08.621Z,0
2023-03-04T17:24:42.831Z,0
2023-03-04T17:25:59.936Z,0
2023-03-04T17:27:17.041Z,0
2023-03-04T17:28:34.146Z,0
2023-03-04T17:29:50.267Z,0
2023-03-04T17:31:07.372Z,0
2023-03-04T17:32:24.477Z,0
2023-03-04T17:33:41.582Z,0
2023-03-04T17:34:58.687Z,0
2023-03-04T17:36:15.792Z,0
2023-03-04T17:37:32.897Z,0
2023-03-04T17:40:07.106Z,0
2023-03-04T17:41:24.211Z,0
2023-03-04T17:42:41.316Z,0
2023-03-04T17:43:58.421Z,0
2023-03-04T17:45:15.526Z,0
2023-03-04T17:46:31.647Z,0
2023-03-04T17:47:48.752Z,0
2023-03-04T17:49:05.857Z,0
2023-03-04T17:50:22.962Z,0
2023-03-04T17:51:40.066Z,0
2023-03-04T17:52:57.171Z,0
2023-03-04T17:54:14.276Z,0
2023-03-04T17:55:31.381Z,0
2023-03-04T17:56:48.486Z,0
2023-03-04T17:58:05.591Z,0
2023-03-04T17:59:22.696Z,0
2023-03-04T18:00:39.801Z,0
2023-03-04T18:01:56.906Z,0
2023-03-04T18:03:13.027Z,0
2023-03-04T18:04:30.132Z,0
2023-03-04T18:05:47.237Z,0
2023-03-04T18:07:04.342Z,0
2023-03-04T18:08:21.447Z,0
2023-03-04T18:09:38.552Z,0
2023-03-04T18:10:55.657Z,0
2023-03-04T18:12:12.761Z,0
2023-03-04T18:13:29.866Z,0
2023-03-04T18:14:46.971Z,0
2023-03-04T18:16:04.076Z,0
2023-03-04T18:17:21.181Z,0
2023-03-04T18:18:38.286Z,0
2023-03-04T18:19:54.407Z,0
2023-03-04T18:21:11.513Z,0
2023-03-04T18:22:28.618Z,0
2023-03-04T18:23:45.723Z,0
2023-03-04T18:25:01.849Z,0
2023-03-04T18:26:17.970Z,0
2023-03-04T18:27:35.075Z,0
2023-03-04T18:28:52.180Z,0
2023-03-04T18:30:09.285Z,0
2023-03-04T18:31:26.390Z,0
2023-03-04T18:32:43.495Z,0
2023-03-04T18:34:00.600Z,0
2023-03-04T18:35:16.726Z,0
2023-03-04T18:36:32.847Z,0
2023-03-04T18:37:49.952Z,0
2023-03-04T18:39:07.057Z,0
2023-03-04T18:40:24.161Z,0
2023-03-04T18:41:41.266Z,0
2023-03-04T18:42:58.371Z,0
2023-03-04T18:44:15.476Z,0
2023-03-04T18:45:32.581Z,0
2023-03-04T18:46:49.686Z,0
2023-03-04T18:48:06.791Z,0
2023-03-04T18:49:23.896Z,0
2023-03-04T18:50:41.001Z,0
2023-03-04T18:51:58.106Z,0
2023-03-04T18:53:14.227Z,0
2023-03-04T18:54:31.331Z,0
2023-03-04T18:57:05.542Z,0
2023-03-04T18:58:22.646Z,0
2023-03-04T18:59:39.751Z,0
2023-03-04T19:00:56.856Z,0
2023-03-04T19:02:13.961Z,0
2023-03-04T19:03:31.066Z,0
2023-03-04T19:04:48.171Z,0